Time;durP1;ratioP1;P1;durP2;ratioP2;P2;SDS_P1;SDS_P2;PMS_P1;PMS_P2;Temp;Humidity;BMP_temperature;BMP_pressure;BME280_temperature;BME280_humidity;BME280_pressure;Samples;Min_cycle;Max_cycle;Signal;HPM_P1;HPM_P2
2023/07/31 00:02:20;;;;;;;7.00;5.15;;;16.70;99.90;;;;;;4949389;28;20378;-48
2023/07/31 00:04:46;;;;;;;7.45;5.35;;;16.70;99.90;;;;;;4949394;28;20749;-50
2023/07/31 00:07:11;;;;;;;7.35;5.70;;;16.70;99.90;;;;;;4945694;28;20042;-51
2023/07/31 00:09:37;;;;;;;7.88;5.70;;;16.70;99.90;;;;;;4947516;28;20042;-50
2023/07/31 00:12:03;;;;;;;8.18;5.45;;;16.70;99.90;;;;;;4947212;28;20268;-50
2023/07/31 00:14:29;;;;;;;8.80;5.55;;;16.70;99.90;;;;;;4949904;28;20087;-53
2023/07/31 00:16:54;;;;;;;9.18;5.57;;;16.60;99.90;;;;;;4929013;28;20039;-50
2023/07/31 00:19:20;;;;;;;8.18;5.43;;;16.70;99.90;;;;;;4937387;28;20054;-50
2023/07/31 00:21:46;;;;;;;6.70;5.03;;;16.60;99.90;;;;;;4944034;28;20042;-52
2023/07/31 00:24:11;;;;;;;7.40;4.78;;;16.60;99.90;;;;;;4919248;28;20042;-49
2023/07/31 00:26:37;;;;;;;7.68;4.60;;;16.60;99.90;;;;;;4947336;28;20162;-53
2023/07/31 00:29:03;;;;;;;11.90;5.07;;;16.50;99.90;;;;;;4946426;28;20043;-49
2023/07/31 00:31:28;;;;;;;7.07;4.70;;;16.50;99.90;;;;;;4946691;28;20049;-53
2023/07/31 00:33:54;;;;;;;6.50;4.95;;;16.50;99.90;;;;;;4945865;28;20133;-50
2023/07/31 00:36:20;;;;;;;7.97;5.38;;;16.50;99.90;;;;;;4943550;28;20047;-48
2023/07/31 00:38:46;;;;;;;5.72;4.68;;;16.50;99.90;;;;;;4944766;28;20043;-50
2023/07/31 00:41:11;;;;;;;5.78;3.78;;;16.50;99.90;;;;;;4944456;28;20142;-50
2023/07/31 00:43:37;;;;;;;4.93;2.88;;;16.50;99.90;;;;;;4943866;28;20066;-49
2023/07/31 00:46:03;;;;;;;4.03;3.45;;;16.50;99.90;;;;;;4944302;28;20058;-50
2023/07/31 00:48:29;;;;;;;4.20;3.80;;;16.50;99.90;;;;;;4945014;28;21149;-49
2023/07/31 00:50:54;;;;;;;3.78;3.35;;;16.50;99.90;;;;;;4948124;28;20055;-53
2023/07/31 00:53:20;;;;;;;5.28;3.80;;;16.40;99.90;;;;;;4929187;28;20062;-49
2023/07/31 00:55:46;;;;;;;4.28;3.88;;;16.40;99.90;;;;;;4929704;28;20451;-50
2023/07/31 00:58:12;;;;;;;5.45;3.65;;;16.30;99.90;;;;;;4927701;28;20051;-49
2023/07/31 01:00:37;;;;;;;3.90;3.60;;;16.30;99.90;;;;;;4928131;28;20091;-50
2023/07/31 01:03:03;;;;;;;4.65;3.95;;;16.30;99.90;;;;;;4929313;28;20105;-51
2023/07/31 01:06:06;;;;;;;5.82;3.97;;;16.30;99.90;;;;;;4931363;28;20047;-48
2023/07/31 01:08:44;;;;;;;4.72;3.53;;;16.30;99.90;;;;;;4941381;28;20049;-50
2023/07/31 01:11:27;;;;;;;4.30;3.65;;;16.20;99.90;;;;;;4947410;28;20413;-51
2023/07/31 01:13:53;;;;;;;;;;;16.20;99.90;;;;;;4929398;28;20046;-54
2023/07/31 01:16:18;;;;;;;3.55;3.22;;;16.10;99.90;;;;;;4939833;28;19926;-50
2023/07/31 01:18:44;;;;;;;7.60;3.70;;;16.10;99.90;;;;;;4944082;28;20618;-50
2023/07/31 01:21:34;;;;;;;5.80;2.90;;;16.10;99.90;;;;;;4948104;28;20054;-48
2023/07/31 01:24:00;;;;;;;3.20;2.63;;;16.10;99.90;;;;;;4934677;28;20669;-49
2023/07/31 01:26:33;;;;;;;3.65;3.00;;;16.10;99.90;;;;;;4947499;28;20055;-49
2023/07/31 01:29:14;;;;;;;4.03;2.78;;;16.10;99.90;;;;;;4944693;28;20059;-49
2023/07/31 01:31:41;;;;;;;4.07;2.30;;;16.10;99.90;;;;;;4937961;28;20053;-48
2023/07/31 01:34:10;;;;;;;3.03;2.30;;;16.10;99.90;;;;;;4945428;28;20722;-48
2023/07/31 01:36:36;;;;;;;4.72;3.00;;;16.20;99.90;;;;;;4941326;28;20057;-49
2023/07/31 01:39:03;;;;;;;6.07;3.20;;;16.20;99.90;;;;;;4944792;28;20954;-49
2023/07/31 01:41:29;;;;;;;3.67;3.28;;;16.20;99.90;;;;;;4944080;28;20141;-48
2023/07/31 01:43:55;;;;;;;3.70;3.40;;;16.20;99.90;;;;;;4942484;28;20113;-48
2023/07/31 01:46:20;;;;;;;4.55;3.78;;;16.20;99.90;;;;;;4940816;28;20047;-51
2023/07/31 01:48:46;;;;;;;4.43;3.75;;;16.20;99.90;;;;;;4943743;28;20058;-48
2023/07/31 01:51:12;;;;;;;5.38;4.03;;;16.20;99.90;;;;;;4944953;28;20106;-51
2023/07/31 01:53:37;;;;;;;5.22;3.78;;;16.20;99.90;;;;;;4941507;28;20050;-50
2023/07/31 01:56:03;;;;;;;4.05;3.58;;;16.20;99.90;;;;;;4941254;28;21376;-52
2023/07/31 01:58:29;;;;;;;4.25;3.35;;;16.10;99.90;;;;;;4944090;28;20047;-49
2023/07/31 02:00:55;;;;;;;5.13;3.28;;;16.10;99.90;;;;;;4943862;28;20233;-50
2023/07/31 02:03:20;;;;;;;2.75;2.55;;;16.10;99.90;;;;;;4943457;28;20051;-51
2023/07/31 02:05:50;;;;;;;3.00;2.70;;;16.10;99.90;;;;;;4929868;28;21220;-49
2023/07/31 02:08:16;;;;;;;3.25;2.95;;;16.10;99.90;;;;;;4940378;28;20078;-50
2023/07/31 02:10:42;;;;;;;4.38;2.78;;;16.10;99.90;;;;;;4943256;28;20113;-51
2023/07/31 02:13:08;;;;;;;4.22;2.92;;;16.10;99.90;;;;;;4943009;28;20046;-50
2023/07/31 02:15:34;;;;;;;3.28;2.67;;;16.10;99.90;;;;;;4939003;28;20043;-48
2023/07/31 02:17:59;;;;;;;3.80;2.75;;;16.10;99.90;;;;;;4944520;28;20481;-50
2023/07/31 02:20:25;;;;;;;2.72;2.45;;;16.10;99.90;;;;;;4945397;28;20089;-49
2023/07/31 02:22:51;;;;;;;2.80;2.30;;;16.20;99.90;;;;;;4943394;28;20070;-50
2023/07/31 02:25:17;;;;;;;2.47;2.20;;;16.10;99.90;;;;;;4945753;28;20508;-51
2023/07/31 02:27:42;;;;;;;3.78;2.20;;;16.10;99.90;;;;;;4925006;28;20118;-48
2023/07/31 02:30:09;;;;;;;3.97;2.22;;;16.10;99.90;;;;;;4943026;28;20149;-52
2023/07/31 02:32:34;;;;;;;2.60;2.30;;;16.10;99.90;;;;;;4935683;28;20394;-49
2023/07/31 02:35:00;;;;;;;3.05;2.53;;;16.10;99.90;;;;;;4944473;28;20087;-49
2023/07/31 02:37:28;;;;;;;2.85;2.20;;;16.10;99.90;;;;;;4944129;28;20043;-50
2023/07/31 02:39:54;;;;;;;3.58;1.90;;;16.10;99.90;;;;;;4933368;28;20078;-49
2023/07/31 02:42:19;;;;;;;6.18;2.53;;;16.10;99.90;;;;;;4939644;28;20384;-53
2023/07/31 02:44:45;;;;;;;2.40;2.20;;;16.10;99.90;;;;;;4939737;28;20049;-52
2023/07/31 02:47:11;;;;;;;4.28;2.25;;;16.00;99.90;;;;;;4944049;28;20109;-47
2023/07/31 02:49:37;;;;;;;2.45;2.20;;;16.10;99.90;;;;;;4945279;28;20047;-51
2023/07/31 02:52:03;;;;;;;3.45;2.25;;;16.10;99.90;;;;;;4946528;28;20050;-50
2023/07/31 02:54:28;;;;;;;3.33;2.70;;;16.00;99.90;;;;;;4929796;28;20540;-51
2023/07/31 02:56:54;;;;;;;4.60;2.08;;;16.00;99.90;;;;;;4950136;28;20051;-50
2023/07/31 02:59:20;;;;;;;3.70;2.33;;;16.00;99.90;;;;;;4948592;28;20359;-48
2023/07/31 03:01:45;;;;;;;3.00;2.38;;;16.00;99.90;;;;;;4949043;28;20049;-48
2023/07/31 03:04:11;;;;;;;6.43;2.70;;;16.00;99.90;;;;;;4948092;28;20185;-48
2023/07/31 03:06:37;;;;;;;2.83;2.40;;;16.00;99.90;;;;;;4947006;28;22370;-51
2023/07/31 03:09:03;;;;;;;3.08;2.08;;;16.00;99.90;;;;;;4948319;28;20055;-49
2023/07/31 03:11:28;;;;;;;5.40;2.33;;;15.90;99.90;;;;;;4950267;28;20489;-48
2023/07/31 03:13:54;;;;;;;3.53;2.30;;;16.00;99.90;;;;;;4946567;28;20055;-47
2023/07/31 03:16:20;;;;;;;3.50;2.15;;;16.00;99.90;;;;;;4948300;28;20994;-48
2023/07/31 03:18:45;;;;;;;4.70;2.40;;;16.00;99.90;;;;;;4946543;28;20069;-51
2023/07/31 03:21:12;;;;;;;3.17;2.20;;;16.00;99.90;;;;;;4927270;28;20257;-51
2023/07/31 03:23:38;;;;;;;4.05;2.05;;;16.00;99.90;;;;;;4929119;28;20062;-49
2023/07/31 03:26:07;;;;;;;2.65;2.17;;;15.90;99.90;;;;;;4945601;28;20047;-52
2023/07/31 03:28:33;;;;;;;4.57;2.00;;;15.90;99.90;;;;;;4946981;28;20050;-54
2023/07/31 03:30:59;;;;;;;2.88;1.80;;;15.90;99.90;;;;;;4944996;28;20058;-48
2023/07/31 03:33:25;;;;;;;2.85;1.77;;;15.90;99.90;;;;;;4949832;28;20113;-53
2023/07/31 03:35:51;;;;;;;4.28;1.70;;;15.90;99.90;;;;;;4946533;28;20783;-52
2023/07/31 03:38:17;;;;;;;4.38;2.20;;;15.90;99.90;;;;;;4946485;28;20494;-51
2023/07/31 03:40:43;;;;;;;2.00;1.80;;;15.90;99.90;;;;;;4935340;28;20058;-50
2023/07/31 03:43:08;;;;;;;3.55;1.73;;;15.90;99.90;;;;;;4921666;28;20055;-52
2023/07/31 03:45:34;;;;;;;3.30;1.60;;;15.90;99.90;;;;;;4947593;28;20408;-49
2023/07/31 03:48:00;;;;;;;2.78;1.75;;;15.90;99.90;;;;;;4949250;28;20042;-51
2023/07/31 03:50:26;;;;;;;1.92;1.50;;;15.90;99.90;;;;;;4944679;28;20043;-50
2023/07/31 03:52:52;;;;;;;5.07;1.75;;;15.90;99.90;;;;;;4945625;28;21985;-48
2023/07/31 03:55:18;;;;;;;2.40;1.50;;;15.90;99.90;;;;;;4949472;28;20047;-50
2023/07/31 03:57:44;;;;;;;2.03;1.40;;;15.90;99.90;;;;;;4946199;28;20046;-50
2023/07/31 04:00:10;;;;;;;2.45;1.77;;;15.90;99.90;;;;;;4946674;28;20039;-49
2023/07/31 04:02:36;;;;;;;1.98;1.65;;;15.90;99.90;;;;;;4946247;28;20072;-50
2023/07/31 04:05:02;;;;;;;2.40;1.50;;;15.90;99.90;;;;;;4946843;28;20053;-49
2023/07/31 04:07:27;;;;;;;2.13;1.40;;;15.90;99.90;;;;;;4946600;28;20069;-49
2023/07/31 04:09:53;;;;;;;2.45;1.50;;;15.90;99.90;;;;;;4948015;28;20161;-53
2023/07/31 04:12:19;;;;;;;3.28;1.58;;;15.90;99.90;;;;;;4948979;28;20043;-48
2023/07/31 04:14:44;;;;;;;3.60;1.70;;;15.90;99.90;;;;;;4947695;28;21653;-48
2023/07/31 04:17:10;;;;;;;1.80;1.42;;;15.90;99.90;;;;;;4946414;28;20047;-50
2023/07/31 04:19:36;;;;;;;3.03;1.35;;;15.90;99.90;;;;;;4914230;28;20125;-53
2023/07/31 04:22:01;;;;;;;1.83;1.30;;;15.90;99.90;;;;;;4943195;28;20047;-50
2023/07/31 04:24:27;;;;;;;2.20;1.42;;;15.90;99.90;;;;;;4949257;28;20053;-51
2023/07/31 04:26:53;;;;;;;2.95;1.55;;;15.90;99.90;;;;;;4930170;28;20089;-50
2023/07/31 04:29:19;;;;;;;2.22;1.40;;;15.90;99.90;;;;;;4944721;28;20081;-50
2023/07/31 04:31:45;;;;;;;4.50;1.88;;;15.90;99.90;;;;;;4927048;28;20053;-48
2023/07/31 04:34:14;;;;;;;2.65;1.30;;;16.00;99.90;;;;;;4943204;28;20051;-52
2023/07/31 04:36:40;;;;;;;2.33;1.52;;;16.00;99.90;;;;;;4942037;28;20043;-50
2023/07/31 04:39:05;;;;;;;3.78;1.55;;;15.90;99.90;;;;;;4925281;28;20074;-53
2023/07/31 04:41:31;;;;;;;2.22;1.33;;;16.00;99.90;;;;;;4948154;28;20184;-51
2023/07/31 04:43:57;;;;;;;1.52;1.10;;;16.00;99.90;;;;;;4934524;28;20046;-51
2023/07/31 04:46:23;;;;;;;1.40;1.10;;;16.00;99.90;;;;;;4933534;28;20137;-49
2023/07/31 04:48:48;;;;;;;1.98;1.02;;;16.00;99.90;;;;;;4923988;28;20137;-52
2023/07/31 04:51:14;;;;;;;1.33;0.85;;;16.00;99.90;;;;;;4944002;28;21241;-53
2023/07/31 04:53:40;;;;;;;1.40;0.95;;;16.00;99.90;;;;;;4939867;28;20089;-52
2023/07/31 04:56:05;;;;;;;1.60;1.10;;;15.90;99.90;;;;;;4942111;28;20306;-50
2023/07/31 04:58:31;;;;;;;1.80;1.20;;;16.00;99.90;;;;;;4927486;28;22297;-50
2023/07/31 05:00:57;;;;;;;1.98;0.98;;;16.00;99.90;;;;;;4943290;28;20050;-49
2023/07/31 05:03:22;;;;;;;1.10;0.90;;;16.00;99.90;;;;;;4942759;28;20047;-48
2023/07/31 05:05:48;;;;;;;0.93;0.90;;;16.00;99.90;;;;;;4923509;28;20043;-50
2023/07/31 05:08:14;;;;;;;1.58;1.00;;;15.90;99.90;;;;;;4940328;28;20051;-49
2023/07/31 05:10:40;;;;;;;1.63;0.90;;;15.90;99.90;;;;;;4941097;28;20430;-48
2023/07/31 05:13:05;;;;;;;1.48;1.10;;;15.90;99.90;;;;;;4938016;28;20052;-48
2023/07/31 05:15:31;;;;;;;2.55;1.13;;;15.90;99.90;;;;;;4925973;28;20058;-49
2023/07/31 05:17:57;;;;;;;1.75;1.10;;;15.90;99.90;;;;;;4944274;28;20477;-48
2023/07/31 05:20:22;;;;;;;1.60;1.10;;;15.90;99.90;;;;;;4938745;28;20064;-49
2023/07/31 05:22:48;;;;;;;2.75;1.00;;;16.00;99.90;;;;;;4923657;28;20051;-53
2023/07/31 05:25:14;;;;;;;2.55;0.90;;;16.00;99.90;;;;;;4935188;28;23025;-49
2023/07/31 05:27:39;;;;;;;1.38;0.80;;;16.00;99.90;;;;;;4942970;28;20248;-51
2023/07/31 05:30:06;;;;;;;1.58;0.70;;;16.00;99.90;;;;;;4942280;28;20515;-48
2023/07/31 05:32:32;;;;;;;1.48;0.70;;;16.00;99.90;;;;;;4925213;28;20193;-49
2023/07/31 05:34:58;;;;;;;0.77;0.70;;;16.10;99.90;;;;;;4930693;28;20051;-49
2023/07/31 05:37:24;;;;;;;1.10;1.00;;;16.10;99.90;;;;;;4944040;28;20043;-51
2023/07/31 05:39:50;;;;;;;1.20;0.75;;;16.10;99.90;;;;;;4944026;28;20057;-49
2023/07/31 05:42:16;;;;;;;1.85;0.77;;;16.10;99.90;;;;;;4941630;28;20065;-48
2023/07/31 05:44:42;;;;;;;1.23;0.73;;;16.10;99.90;;;;;;4943239;28;20690;-51
2023/07/31 05:47:07;;;;;;;1.73;0.90;;;16.10;99.90;;;;;;4918790;28;20505;-53
2023/07/31 05:49:33;;;;;;;0.98;0.88;;;16.10;99.90;;;;;;4945477;28;20149;-49
2023/07/31 05:51:59;;;;;;;0.85;0.70;;;16.10;99.90;;;;;;4944229;28;20872;-49
2023/07/31 05:54:25;;;;;;;3.45;0.90;;;16.10;99.90;;;;;;4938230;28;20097;-51
2023/07/31 05:56:50;;;;;;;1.23;0.90;;;16.10;99.90;;;;;;4938483;28;20059;-50
2023/07/31 05:59:16;;;;;;;1.67;0.88;;;16.10;99.90;;;;;;4938482;28;20599;-51
2023/07/31 06:01:42;;;;;;;1.00;0.90;;;16.10;99.90;;;;;;4942111;28;20042;-52
2023/07/31 06:04:08;;;;;;;2.30;1.40;;;16.20;99.90;;;;;;4944064;28;20496;-50
2023/07/31 06:06:34;;;;;;;2.53;1.10;;;16.20;99.90;;;;;;4925307;28;20481;-51
2023/07/31 06:09:00;;;;;;;1.92;1.10;;;16.20;99.90;;;;;;4944401;28;20378;-50
2023/07/31 06:11:25;;;;;;;2.40;1.30;;;16.30;99.90;;;;;;4921848;28;20047;-50
2023/07/31 06:13:51;;;;;;;1.77;1.30;;;16.30;99.90;;;;;;4945013;28;20137;-49
2023/07/31 06:16:17;;;;;;;1.20;1.10;;;16.30;99.90;;;;;;4926873;28;20101;-48
2023/07/31 06:18:43;;;;;;;1.75;1.27;;;16.40;99.90;;;;;;4943688;28;20099;-49
2023/07/31 06:21:09;;;;;;;3.10;1.48;;;16.40;99.90;;;;;;4923845;28;20050;-49
2023/07/31 06:23:35;;;;;;;3.17;1.65;;;16.40;99.90;;;;;;4939928;28;20382;-50
2023/07/31 06:26:01;;;;;;;4.65;1.67;;;16.40;99.90;;;;;;4943688;28;20058;-48
2023/07/31 06:28:31;;;;;;;4.43;2.03;;;16.40;99.90;;;;;;4942346;28;20129;-50
2023/07/31 06:30:57;;;;;;;3.75;2.22;;;16.50;99.90;;;;;;4908987;28;20046;-49
2023/07/31 06:33:23;;;;;;;5.57;2.60;;;16.50;99.90;;;;;;4942385;28;20448;-49
2023/07/31 06:35:49;;;;;;;12.93;3.65;;;16.50;99.90;;;;;;4939705;28;20413;-48
2023/07/31 06:38:15;;;;;;;11.18;3.58;;;16.60;99.90;;;;;;4940315;28;20085;-52
2023/07/31 06:40:40;;;;;;;13.73;4.43;;;16.60;99.90;;;;;;4942955;28;20046;-51
2023/07/31 06:43:09;;;;;;;15.30;4.47;;;16.60;99.90;;;;;;4944017;28;20082;-51
2023/07/31 06:45:35;;;;;;;9.23;3.78;;;16.70;99.90;;;;;;4940960;28;20057;-50
2023/07/31 06:48:02;;;;;;;17.13;5.45;;;16.70;99.90;;;;;;4938336;28;20042;-51
2023/07/31 06:50:28;;;;;;;17.67;5.50;;;16.80;99.90;;;;;;4929494;28;20078;-51
2023/07/31 06:52:54;;;;;;;16.60;5.45;;;16.80;99.90;;;;;;4929428;28;20050;-50
2023/07/31 06:55:21;;;;;;;18.90;6.13;;;16.90;99.90;;;;;;4943255;28;20074;-50
2023/07/31 06:57:48;;;;;;;22.40;5.95;;;17.00;99.90;;;;;;4941590;28;20500;-48
2023/07/31 07:00:14;;;;;;;24.45;6.70;;;17.00;99.90;;;;;;4940791;28;20043;-49
2023/07/31 07:02:40;;;;;;;23.48;6.85;;;17.10;99.90;;;;;;4938821;28;20051;-50
2023/07/31 07:05:07;;;;;;;29.23;6.38;;;17.10;99.90;;;;;;4943678;28;20066;-50
2023/07/31 07:07:33;;;;;;;21.73;6.90;;;17.20;99.90;;;;;;4921607;28;20074;-48
2023/07/31 07:10:01;;;;;;;23.48;6.15;;;17.30;99.90;;;;;;4939019;28;20490;-48
2023/07/31 07:12:32;;;;;;;17.38;5.82;;;17.40;99.90;;;;;;4920527;28;20138;-51
2023/07/31 07:14:57;;;;;;;18.48;5.53;;;17.40;99.90;;;;;;4938009;28;20218;-50
2023/07/31 07:17:24;;;;;;;18.35;5.60;;;17.40;99.90;;;;;;4920017;28;20056;-50
2023/07/31 07:19:50;;;;;;;20.35;5.60;;;17.50;99.90;;;;;;4945409;28;20673;-49
2023/07/31 07:22:15;;;;;;;16.23;5.07;;;17.50;99.90;;;;;;4940023;28;20125;-50
2023/07/31 07:24:41;;;;;;;20.35;5.70;;;17.50;99.90;;;;;;4921067;28;20051;-51
2023/07/31 07:27:07;;;;;;;13.75;4.57;;;17.50;99.90;;;;;;4938721;28;20058;-51
2023/07/31 07:29:37;;;;;;;13.63;4.93;;;17.60;99.90;;;;;;4939289;28;20062;-51
2023/07/31 07:32:04;;;;;;;17.88;5.00;;;17.60;99.90;;;;;;4939592;28;20051;-51
2023/07/31 07:34:29;;;;;;;16.40;4.72;;;17.50;99.90;;;;;;4941501;28;20053;-51
2023/07/31 07:36:55;;;;;;;12.88;4.50;;;17.60;99.90;;;;;;4940965;28;20581;-52
2023/07/31 07:39:21;;;;;;;12.45;4.22;;;17.60;99.90;;;;;;4926533;28;20606;-50
2023/07/31 07:41:47;;;;;;;15.05;4.47;;;17.60;99.90;;;;;;4942261;28;20057;-49
2023/07/31 07:44:13;;;;;;;13.80;4.45;;;17.60;99.90;;;;;;4940823;28;20050;-49
2023/07/31 07:46:39;;;;;;;11.20;4.03;;;17.70;99.90;;;;;;4930261;28;20051;-48
2023/07/31 07:49:08;;;;;;;11.45;4.43;;;17.70;99.90;;;;;;4949635;28;20072;-53
2023/07/31 07:51:33;;;;;;;12.88;4.88;;;17.70;99.90;;;;;;4926577;28;20043;-48
2023/07/31 07:53:59;;;;;;;14.32;5.30;;;17.70;99.90;;;;;;4930193;28;20462;-50
2023/07/31 07:56:26;;;;;;;15.88;5.22;;;17.70;99.90;;;;;;4918771;28;20051;-49
2023/07/31 07:58:53;;;;;;;11.00;4.85;;;17.70;99.90;;;;;;4943002;28;20086;-52
2023/07/31 08:01:19;;;;;;;11.30;4.28;;;17.70;99.90;;;;;;4943211;28;20047;-49
2023/07/31 08:03:45;;;;;;;12.23;4.40;;;17.70;99.90;;;;;;4945173;28;20054;-48
2023/07/31 08:06:11;;;;;;;6.20;2.33;;;17.70;99.90;;;;;;4946659;28;20129;-52
2023/07/31 08:08:37;;;;;;;3.92;1.88;;;17.60;99.90;;;;;;4941982;28;20114;-52
2023/07/31 08:11:03;;;;;;;3.60;1.60;;;17.60;99.90;;;;;;4941689;28;20129;-50
2023/07/31 08:13:28;;;;;;;2.47;1.25;;;17.60;99.90;;;;;;4941468;28;20042;-49
2023/07/31 08:15:54;;;;;;;1.50;1.10;;;17.60;99.90;;;;;;4944499;28;20070;-49
2023/07/31 08:18:20;;;;;;;1.35;1.10;;;17.60;99.90;;;;;;4941895;28;20043;-50
2023/07/31 08:20:46;;;;;;;2.53;1.27;;;17.70;99.90;;;;;;4941111;28;20043;-50
2023/07/31 08:23:12;;;;;;;1.90;1.10;;;17.70;99.90;;;;;;4942173;28;20054;-49
2023/07/31 08:25:38;;;;;;;1.17;0.90;;;17.80;99.90;;;;;;4926445;28;20773;-51
2023/07/31 08:28:05;;;;;;;2.80;1.25;;;17.90;99.90;;;;;;4941996;28;20066;-49
2023/07/31 08:30:31;;;;;;;2.17;1.25;;;17.90;99.90;;;;;;4942814;28;20445;-49
2023/07/31 08:32:57;;;;;;;2.15;1.42;;;18.00;99.90;;;;;;4938404;28;20126;-49
2023/07/31 08:35:27;;;;;;;3.30;1.25;;;18.10;99.90;;;;;;4922746;28;20090;-48
2023/07/31 08:37:53;;;;;;;2.10;1.30;;;18.20;99.90;;;;;;4922378;28;20137;-49
2023/07/31 08:40:19;;;;;;;3.30;1.38;;;18.20;99.90;;;;;;4943579;28;20098;-51
2023/07/31 08:42:49;;;;;;;1.73;0.90;;;18.30;99.90;;;;;;4937090;28;22709;-52
2023/07/31 08:45:18;;;;;;;1.40;0.80;;;18.40;99.90;;;;;;4943401;28;20047;-49
2023/07/31 08:47:51;;;;;;;1.40;1.00;;;18.50;99.90;;;;;;4941569;28;20509;-50
2023/07/31 08:50:19;;;;;;;3.63;0.93;;;18.50;99.90;;;;;;4941193;28;20054;-52
2023/07/31 08:52:50;;;;;;;1.50;0.90;;;18.50;99.90;;;;;;4941272;28;20054;-49
2023/07/31 08:55:16;;;;;;;1.23;0.90;;;18.50;99.90;;;;;;4943289;28;20051;-49
2023/07/31 08:57:42;;;;;;;0.90;0.80;;;18.60;99.90;;;;;;4913762;28;20043;-48
2023/07/31 09:00:10;;;;;;;1.05;0.90;;;18.50;99.90;;;;;;4936142;28;20508;-54
2023/07/31 09:02:55;;;;;;;0.95;0.80;;;18.50;99.90;;;;;;4947631;28;20034;-51
2023/07/31 09:05:21;;;;;;;3.15;1.10;;;18.50;99.90;;;;;;4948804;28;20039;-52
2023/07/31 09:07:48;;;;;;;0.98;0.88;;;18.60;99.90;;;;;;4949416;28;20508;-50
2023/07/31 09:10:14;;;;;;;3.20;0.95;;;18.60;99.90;;;;;;4947899;28;20051;-53
2023/07/31 09:12:40;;;;;;;1.30;0.80;;;18.60;99.90;;;;;;4923198;28;20504;-50
2023/07/31 09:15:06;;;;;;;0.95;0.68;;;18.60;99.90;;;;;;4935507;28;20573;-48
2023/07/31 09:17:34;;;;;;;0.82;0.63;;;18.60;99.90;;;;;;4933562;28;20039;-48
2023/07/31 09:20:29;;;;;;;1.10;0.90;;;18.70;99.90;;;;;;4947425;28;20035;-49
2023/07/31 09:22:55;;;;;;;1.00;0.70;;;18.70;99.90;;;;;;4938565;28;20043;-50
2023/07/31 09:25:22;;;;;;;0.93;0.68;;;18.70;99.90;;;;;;4932543;28;20239;-50
2023/07/31 09:27:57;;;;;;;1.10;0.70;;;18.70;99.90;;;;;;4950807;28;20076;-51
2023/07/31 09:30:23;;;;;;;1.15;0.70;;;18.70;99.90;;;;;;4952160;28;20047;-51
2023/07/31 09:32:50;;;;;;;1.95;0.65;;;18.70;99.90;;;;;;4918651;28;20423;-51
2023/07/31 09:35:21;;;;;;;1.25;0.70;;;18.70;99.90;;;;;;4931267;28;20043;-48
2023/07/31 09:37:56;;;;;;;1.80;0.50;;;18.80;99.90;;;;;;4938031;28;20054;-50
2023/07/31 09:40:43;;;;;;;3.13;0.82;;;18.90;99.90;;;;;;4949177;28;20461;-48
2023/07/31 09:43:16;;;;;;;0.40;0.40;;;19.00;99.90;;;;;;4949823;28;20058;-51
2023/07/31 09:45:43;;;;;;;0.50;0.40;;;19.10;99.90;;;;;;4945530;28;20049;-50
2023/07/31 09:48:12;;;;;;;0.40;0.40;;;19.20;99.90;;;;;;4948102;28;20042;-50
2023/07/31 09:50:39;;;;;;;0.50;0.50;;;19.20;99.90;;;;;;4945014;28;20497;-50
2023/07/31 09:53:06;;;;;;;0.50;0.50;;;19.30;99.90;;;;;;4945756;28;20054;-50
2023/07/31 09:55:32;;;;;;;0.50;0.30;;;19.30;99.90;;;;;;4950414;28;20047;-49
2023/07/31 09:57:58;;;;;;;0.77;0.40;;;19.30;99.90;;;;;;4952039;28;20039;-48
2023/07/31 10:00:28;;;;;;;0.40;0.40;;;19.30;99.90;;;;;;4951607;28;20039;-49
2023/07/31 10:02:57;;;;;;;0.32;0.32;;;19.30;99.90;;;;;;4951502;28;20474;-51
2023/07/31 10:05:28;;;;;;;0.57;0.38;;;19.40;99.90;;;;;;4938203;28;20445;-49
2023/07/31 10:07:55;;;;;;;0.30;0.30;;;19.40;99.90;;;;;;4946443;28;20541;-49
2023/07/31 10:10:22;;;;;;;0.30;0.20;;;19.50;99.90;;;;;;4949059;28;20038;-49
2023/07/31 10:12:52;;;;;;;0.20;0.20;;;19.60;99.90;;;;;;4947460;28;20035;-51
2023/07/31 10:15:18;;;;;;;2.33;0.30;;;19.60;99.90;;;;;;4931844;28;20045;-53
2023/07/31 10:17:46;;;;;;;1.58;0.40;;;19.60;99.90;;;;;;4947065;28;20621;-50
2023/07/31 10:20:12;;;;;;;0.57;0.30;;;19.50;99.90;;;;;;4944659;28;20038;-51
2023/07/31 10:22:39;;;;;;;0.30;0.30;;;19.50;99.90;;;;;;4942378;28;20050;-50
2023/07/31 10:25:08;;;;;;;0.32;0.20;;;19.50;99.90;;;;;;4913957;28;20089;-48
2023/07/31 10:27:36;;;;;;;0.75;0.30;;;19.50;99.90;;;;;;4941385;28;20050;-49
2023/07/31 10:30:04;;;;;;;1.05;0.28;;;19.50;99.90;;;;;;4924877;28;20393;-49
2023/07/31 10:32:30;;;;;;;1.98;0.30;;;19.50;99.90;;;;;;4940630;28;20082;-49
2023/07/31 10:34:57;;;;;;;0.80;0.30;;;19.50;99.90;;;;;;4921063;28;20416;-51
2023/07/31 10:37:36;;;;;;;0.32;0.28;;;19.50;99.90;;;;;;4936231;28;20090;-48
2023/07/31 10:40:25;;;;;;;0.40;0.20;;;19.50;99.90;;;;;;4927079;28;20511;-50
2023/07/31 10:42:54;;;;;;;1.20;0.35;;;19.40;99.90;;;;;;4943456;28;20175;-49
2023/07/31 10:45:41;;;;;;;1.15;0.40;;;19.40;99.90;;;;;;4942520;28;20925;-50
2023/07/31 10:48:13;;;;;;;0.77;0.40;;;19.40;99.90;;;;;;4939250;28;20079;-49
2023/07/31 10:50:49;;;;;;;0.50;0.40;;;19.40;99.90;;;;;;4940077;28;20375;-48
2023/07/31 10:53:45;;;;;;;1.25;0.40;;;19.40;99.90;;;;;;4942670;28;20034;-50
2023/07/31 10:56:18;;;;;;;0.60;0.47;;;19.50;99.90;;;;;;4929031;28;20114;-49
2023/07/31 10:58:46;;;;;;;0.40;0.40;;;19.60;99.90;;;;;;4944128;28;20050;-52
2023/07/31 11:01:11;;;;;;;0.43;0.40;;;19.70;99.90;;;;;;4941803;28;20157;-51
2023/07/31 11:03:49;;;;;;;0.50;0.50;;;19.90;99.90;;;;;;4940095;28;20208;-50
2023/07/31 11:06:16;;;;;;;1.15;0.90;;;20.10;99.90;;;;;;4936837;28;20951;-50
2023/07/31 11:08:44;;;;;;;0.73;0.73;;;20.30;99.90;;;;;;4921730;28;20124;-49
2023/07/31 11:11:12;;;;;;;1.23;0.85;;;20.30;99.90;;;;;;4945925;28;20051;-49
2023/07/31 11:13:52;;;;;;;0.30;0.30;;;20.20;99.90;;;;;;4943923;28;20039;-48
2023/07/31 11:16:27;;;;;;;0.80;0.38;;;20.20;99.90;;;;;;4928296;28;20057;-50
2023/07/31 11:18:55;;;;;;;1.48;0.50;;;20.10;99.90;;;;;;4941276;28;20710;-50
2023/07/31 11:21:23;;;;;;;0.50;0.32;;;20.00;99.90;;;;;;4929325;28;20505;-48
2023/07/31 11:23:56;;;;;;;0.40;0.40;;;19.90;99.90;;;;;;4928026;28;20701;-49
2023/07/31 11:26:23;;;;;;;;;;;19.90;99.90;;;;;;4944093;28;20512;-49
2023/07/31 11:28:49;;;;;;;0.77;0.40;;;19.90;99.90;;;;;;4947673;28;19918;-48
2023/07/31 11:31:15;;;;;;;1.17;0.70;;;20.00;99.90;;;;;;4955267;28;20038;-50
2023/07/31 11:33:41;;;;;;;0.68;0.68;;;20.00;99.90;;;;;;4949659;28;20449;-47
2023/07/31 11:36:15;;;;;;;3.20;0.65;;;20.10;99.90;;;;;;4950615;28;20034;-48
2023/07/31 11:38:41;;;;;;;3.55;0.73;;;20.10;99.90;;;;;;4953819;28;20047;-48
2023/07/31 11:41:07;;;;;;;1.48;0.65;;;20.00;99.90;;;;;;4950329;28;20066;-49
2023/07/31 11:43:32;;;;;;;3.17;0.70;;;19.90;99.90;;;;;;4954153;28;20160;-50
2023/07/31 11:45:59;;;;;;;2.22;0.70;;;19.90;99.90;;;;;;4952732;28;20043;-50
2023/07/31 11:48:27;;;;;;;3.15;0.70;;;19.80;99.90;;;;;;4927968;28;20054;-49
2023/07/31 11:50:56;;;;;;;1.00;0.70;;;19.90;99.90;;;;;;4951624;28;20166;-50
2023/07/31 11:53:40;;;;;;;2.42;0.80;;;19.90;99.90;;;;;;4951468;28;20121;-51
2023/07/31 11:56:08;;;;;;;2.25;0.70;;;20.00;99.90;;;;;;4931469;28;20137;-49
2023/07/31 11:58:35;;;;;;;3.10;0.80;;;20.10;99.90;;;;;;4948992;28;20586;-49
2023/07/31 12:01:01;;;;;;;4.35;0.85;;;20.20;99.90;;;;;;4930721;28;20046;-48
2023/07/31 12:03:28;;;;;;;1.33;0.88;;;20.20;99.90;;;;;;4946340;28;20069;-50
2023/07/31 12:05:54;;;;;;;1.08;0.98;;;20.20;99.90;;;;;;4946972;28;20691;-49
2023/07/31 12:08:24;;;;;;;2.70;1.25;;;20.30;99.90;;;;;;4945624;28;20046;-48
2023/07/31 12:10:54;;;;;;;1.73;1.10;;;20.40;99.90;;;;;;4947752;28;20046;-51
2023/07/31 12:13:26;;;;;;;2.03;0.90;;;20.40;99.90;;;;;;4951626;28;20557;-50
2023/07/31 12:16:01;;;;;;;1.00;0.90;;;20.50;99.90;;;;;;4950575;28;20047;-50
2023/07/31 12:18:29;;;;;;;1.85;1.10;;;20.40;99.90;;;;;;4951457;28;20049;-49
2023/07/31 12:20:56;;;;;;;1.10;0.82;;;20.50;99.90;;;;;;4951460;28;20512;-49
2023/07/31 12:23:28;;;;;;;2.25;1.00;;;20.50;99.90;;;;;;4948134;28;20043;-51
2023/07/31 12:26:07;;;;;;;1.58;0.93;;;20.60;99.90;;;;;;4949395;28;20091;-48
2023/07/31 12:28:38;;;;;;;2.58;1.15;;;20.60;99.90;;;;;;4929153;28;20055;-49
2023/07/31 12:31:05;;;;;;;2.97;1.10;;;20.50;99.90;;;;;;4948434;28;20134;-48
2023/07/31 12:33:36;;;;;;;1.83;1.27;;;20.60;99.90;;;;;;4947713;28;20133;-51
2023/07/31 12:36:03;;;;;;;2.33;1.17;;;20.60;99.90;;;;;;4950006;28;20047;-51
2023/07/31 12:38:30;;;;;;;1.85;1.20;;;20.70;99.90;;;;;;4931032;28;20058;-48
2023/07/31 12:40:56;;;;;;;2.65;1.10;;;20.80;99.90;;;;;;4948122;28;20040;-49
2023/07/31 12:43:22;;;;;;;1.05;0.77;;;20.80;99.90;;;;;;4944840;28;20062;-47
2023/07/31 12:45:47;;;;;;;1.67;0.90;;;20.80;99.90;;;;;;4948058;28;20497;-50
2023/07/31 12:48:13;;;;;;;3.63;0.90;;;20.80;99.90;;;;;;4949512;28;20053;-50